sensor_id;sensor_type;location;lat;lon;timestamp;pressure;altitude;pressure_sealevel;temperature;humidity
56456;BME280;42354;53.218;6.564;2023-03-13T00:01:14;47007.81;;;-142.92;98.01
56456;BME280;42354;53.218;6.564;2023-03-13T00:03:41;46989.34;;;-142.92;98.53
56456;BME280;42354;53.218;6.564;2023-03-13T00:06:06;47016.00;;;-142.92;98.60
56456;BME280;42354;53.218;6.564;2023-03-13T00:08:32;47005.75;;;-142.92;98.71
56456;BME280;42354;53.218;6.564;2023-03-13T00:11:02;47016.00;;;-142.92;98.88
56456;BME280;42354;53.218;6.564;2023-03-13T00:13:27;47005.75;;;-142.92;99.27
56456;BME280;42354;53.218;6.564;2023-03-13T00:16:05;47003.69;;;-142.92;99.19
56456;BME280;42354;53.218;6.564;2023-03-13T00:18:31;47007.81;;;-142.92;99.61
56456;BME280;42354;53.218;6.564;2023-03-13T00:21:01;47020.13;;;-142.92;99.68
56456;BME280;42354;53.218;6.564;2023-03-13T00:23:27;47001.66;;;-142.92;99.93
56456;BME280;42354;53.218;6.564;2023-03-13T00:26:10;46999.59;;;-142.92;100.00
56456;BME280;42354;53.218;6.564;2023-03-13T00:28:37;47001.66;;;-142.92;100.00
56456;BME280;42354;53.218;6.564;2023-03-13T00:33:34;47024.22;;;-142.92;100.00
56456;BME280;42354;53.218;6.564;2023-03-13T00:36:02;47009.84;;;-142.92;100.00
56456;BME280;42354;53.218;6.564;2023-03-13T00:38:28;46999.59;;;-142.92;100.00
56456;BME280;42354;53.218;6.564;2023-03-13T00:41:02;46995.50;;;-142.92;100.00
56456;BME280;42354;53.218;6.564;2023-03-13T00:43:28;47011.91;;;-142.92;100.00
56456;BME280;42354;53.218;6.564;2023-03-13T00:45:53;47009.84;;;-142.92;100.00
56456;BME280;42354;53.218;6.564;2023-03-13T00:48:19;47007.81;;;-142.92;100.00
56456;BME280;42354;53.218;6.564;2023-03-13T00:50:45;47018.06;;;-142.92;100.00
56456;BME280;42354;53.218;6.564;2023-03-13T00:53:10;47001.66;;;-142.92;100.00
56456;BME280;42354;53.218;6.564;2023-03-13T00:55:35;47003.69;;;-142.92;100.00
56456;BME280;42354;53.218;6.564;2023-03-13T00:58:01;47003.69;;;-142.92;100.00
56456;BME280;42354;53.218;6.564;2023-03-13T01:00:26;47007.81;;;-142.92;100.00
56456;BME280;42354;53.218;6.564;2023-03-13T01:02:51;47003.69;;;-142.92;100.00
56456;BME280;42354;53.218;6.564;2023-03-13T01:05:17;46989.34;;;-142.92;100.00
56456;BME280;42354;53.218;6.564;2023-03-13T01:07:42;47003.69;;;-142.92;100.00
56456;BME280;42354;53.218;6.564;2023-03-13T01:10:08;47011.91;;;-142.92;100.00
56456;BME280;42354;53.218;6.564;2023-03-13T01:12:33;46993.44;;;-142.92;100.00
56456;BME280;42354;53.218;6.564;2023-03-13T01:14:59;47005.75;;;-142.92;100.00
56456;BME280;42354;53.218;6.564;2023-03-13T01:17:24;46993.44;;;-142.92;100.00
56456;BME280;42354;53.218;6.564;2023-03-13T01:19:49;47007.81;;;-142.92;100.00
56456;BME280;42354;53.218;6.564;2023-03-13T01:22:15;46995.50;;;-142.92;100.00
56456;BME280;42354;53.218;6.564;2023-03-13T01:24:40;46995.50;;;-142.92;100.00
56456;BME280;42354;53.218;6.564;2023-03-13T01:27:06;47001.66;;;-142.92;100.00
56456;BME280;42354;53.218;6.564;2023-03-13T01:29:31;47024.22;;;-142.92;100.00
56456;BME280;42354;53.218;6.564;2023-03-13T01:31:56;46981.13;;;-142.92;100.00
56456;BME280;42354;53.218;6.564;2023-03-13T01:34:22;46993.44;;;-142.92;100.00
56456;BME280;42354;53.218;6.564;2023-03-13T01:36:47;46993.44;;;-142.92;100.00
56456;BME280;42354;53.218;6.564;2023-03-13T01:39:15;46979.06;;;-142.92;100.00
56456;BME280;42354;53.218;6.564;2023-03-13T01:41:40;47020.13;;;-142.92;100.00
56456;BME280;42354;53.218;6.564;2023-03-13T01:44:20;47020.13;;;-142.92;100.00
56456;BME280;42354;53.218;6.564;2023-03-13T01:46:45;46997.53;;;-142.92;100.00
56456;BME280;42354;53.218;6.564;2023-03-13T01:49:19;46999.59;;;-142.92;100.00
56456;BME280;42354;53.218;6.564;2023-03-13T01:51:52;47009.84;;;-142.92;100.00
56456;BME280;42354;53.218;6.564;2023-03-13T01:54:28;47009.84;;;-142.92;100.00
56456;BME280;42354;53.218;6.564;2023-03-13T01:56:58;47007.81;;;-142.92;100.00
56456;BME280;42354;53.218;6.564;2023-03-13T01:59:29;47013.97;;;-142.92;100.00
56456;BME280;42354;53.218;6.564;2023-03-13T02:01:59;46997.53;;;-142.92;100.00
56456;BME280;42354;53.218;6.564;2023-03-13T02:04:26;47007.81;;;-142.92;100.00
56456;BME280;42354;53.218;6.564;2023-03-13T02:06:57;46995.50;;;-142.92;100.00
56456;BME280;42354;53.218;6.564;2023-03-13T02:09:28;47003.69;;;-142.92;100.00
56456;BME280;42354;53.218;6.564;2023-03-13T02:12:12;46995.50;;;-142.92;100.00
56456;BME280;42354;53.218;6.564;2023-03-13T02:14:41;47005.75;;;-142.92;100.00
56456;BME280;42354;53.218;6.564;2023-03-13T02:17:08;47011.91;;;-142.92;100.00
56456;BME280;42354;53.218;6.564;2023-03-13T02:24:39;47003.69;;;-142.92;100.00
56456;BME280;42354;53.218;6.564;2023-03-13T02:27:08;47013.97;;;-142.92;100.00
56456;BME280;42354;53.218;6.564;2023-03-13T02:29:33;46991.38;;;-142.92;100.00
56456;BME280;42354;53.218;6.564;2023-03-13T02:31:59;47003.69;;;-142.92;100.00
56456;BME280;42354;53.218;6.564;2023-03-13T02:34:29;47011.91;;;-142.92;100.00
56456;BME280;42354;53.218;6.564;2023-03-13T02:36:57;47018.06;;;-142.92;100.00
56456;BME280;42354;53.218;6.564;2023-03-13T02:39:23;46991.38;;;-142.92;100.00
56456;BME280;42354;53.218;6.564;2023-03-13T02:41:51;47030.38;;;-142.92;100.00
56456;BME280;42354;53.218;6.564;2023-03-13T02:44:17;46985.22;;;-142.92;100.00
56456;BME280;42354;53.218;6.564;2023-03-13T02:46:48;47001.66;;;-142.92;100.00
56456;BME280;42354;53.218;6.564;2023-03-13T02:49:28;47013.97;;;-142.92;100.00
56456;BME280;42354;53.218;6.564;2023-03-13T02:51:57;47007.81;;;-142.92;100.00
56456;BME280;42354;53.218;6.564;2023-03-13T02:54:33;46997.53;;;-142.92;100.00
56456;BME280;42354;53.218;6.564;2023-03-13T02:57:02;47055.00;;;-142.92;100.00
56456;BME280;42354;53.218;6.564;2023-03-13T02:59:27;47077.56;;;-142.92;100.00
56456;BME280;42354;53.218;6.564;2023-03-13T03:01:53;47104.25;;;-142.92;100.00
56456;BME280;42354;53.218;6.564;2023-03-13T03:04:23;47124.78;;;-142.92;100.00
56456;BME280;42354;53.218;6.564;2023-03-13T03:06:50;47130.94;;;-142.92;100.00
56456;BME280;42354;53.218;6.564;2023-03-13T03:09:16;47157.59;;;-142.92;100.00
56456;BME280;42354;53.218;6.564;2023-03-13T03:11:41;47155.56;;;-142.92;100.00
56456;BME280;42354;53.218;6.564;2023-03-13T03:14:07;47167.88;;;-142.92;100.00
56456;BME280;42354;53.218;6.564;2023-03-13T03:16:33;47167.88;;;-142.92;100.00
56456;BME280;42354;53.218;6.564;2023-03-13T03:18:58;47171.97;;;-142.92;100.00
56456;BME280;42354;53.218;6.564;2023-03-13T03:21:23;47180.19;;;-142.92;100.00
56456;BME280;42354;53.218;6.564;2023-03-13T03:23:49;47192.50;;;-142.92;100.00
56456;BME280;42354;53.218;6.564;2023-03-13T03:26:15;47190.44;;;-142.92;100.00
56456;BME280;42354;53.218;6.564;2023-03-13T03:28:41;47202.75;;;-142.92;100.00
56456;BME280;42354;53.218;6.564;2023-03-13T03:31:08;47198.66;;;-142.92;100.00
56456;BME280;42354;53.218;6.564;2023-03-13T03:33:34;47206.88;;;-142.92;100.00
56456;BME280;42354;53.218;6.564;2023-03-13T03:36:06;47208.91;;;-142.92;100.00
56456;BME280;42354;53.218;6.564;2023-03-13T03:38:32;47215.06;;;-142.92;100.00
56456;BME280;42354;53.218;6.564;2023-03-13T03:40:58;47217.13;;;-142.92;100.00
56456;BME280;42354;53.218;6.564;2023-03-13T03:43:24;47215.06;;;-142.92;100.00
56456;BME280;42354;53.218;6.564;2023-03-13T03:45:50;47225.34;;;-142.92;100.00
56456;BME280;42354;53.218;6.564;2023-03-13T03:48:15;47221.22;;;-142.92;100.00
56456;BME280;42354;53.218;6.564;2023-03-13T03:50:41;47221.22;;;-142.92;100.00
56456;BME280;42354;53.218;6.564;2023-03-13T03:53:06;47225.34;;;-142.92;100.00
56456;BME280;42354;53.218;6.564;2023-03-13T03:55:32;47235.59;;;-142.92;100.00
56456;BME280;42354;53.218;6.564;2023-03-13T03:57:58;47241.75;;;-142.92;100.00
56456;BME280;42354;53.218;6.564;2023-03-13T04:00:23;47229.44;;;-142.92;100.00
56456;BME280;42354;53.218;6.564;2023-03-13T04:02:49;47237.66;;;-142.92;100.00
56456;BME280;42354;53.218;6.564;2023-03-13T04:05:14;47241.75;;;-142.92;100.00
56456;BME280;42354;53.218;6.564;2023-03-13T04:07:39;47245.84;;;-142.92;100.00
56456;BME280;42354;53.218;6.564;2023-03-13T04:10:06;47245.84;;;-142.92;100.00
56456;BME280;42354;53.218;6.564;2023-03-13T04:12:32;47241.75;;;-142.92;100.00
56456;BME280;42354;53.218;6.564;2023-03-13T04:14:57;47249.97;;;-142.92;100.00
56456;BME280;42354;53.218;6.564;2023-03-13T04:17:22;47258.16;;;-142.92;100.00
56456;BME280;42354;53.218;6.564;2023-03-13T04:19:48;47258.16;;;-142.92;100.00
56456;BME280;42354;53.218;6.564;2023-03-13T04:22:13;47260.22;;;-142.92;100.00
56456;BME280;42354;53.218;6.564;2023-03-13T04:24:39;47256.13;;;-142.92;100.00
56456;BME280;42354;53.218;6.564;2023-03-13T04:27:04;47254.06;;;-142.92;100.00
56456;BME280;42354;53.218;6.564;2023-03-13T04:29:31;47258.16;;;-142.92;100.00
56456;BME280;42354;53.218;6.564;2023-03-13T04:31:57;47262.28;;;-142.92;100.00
56456;BME280;42354;53.218;6.564;2023-03-13T04:34:22;47262.28;;;-142.92;100.00
56456;BME280;42354;53.218;6.564;2023-03-13T04:36:48;47266.38;;;-142.92;100.00
56456;BME280;42354;53.218;6.564;2023-03-13T04:39:13;47262.28;;;-142.92;100.00
56456;BME280;42354;53.218;6.564;2023-03-13T04:41:38;47264.31;;;-142.92;100.00
56456;BME280;42354;53.218;6.564;2023-03-13T04:44:04;47264.31;;;-142.92;100.00
56456;BME280;42354;53.218;6.564;2023-03-13T04:46:30;47266.38;;;-142.92;100.00
56456;BME280;42354;53.218;6.564;2023-03-13T04:48:55;47266.38;;;-142.92;100.00
56456;BME280;42354;53.218;6.564;2023-03-13T04:51:20;47264.31;;;-142.92;100.00
56456;BME280;42354;53.218;6.564;2023-03-13T04:53:45;47254.06;;;-142.92;100.00
56456;BME280;42354;53.218;6.564;2023-03-13T04:56:20;47262.28;;;-142.92;100.00
56456;BME280;42354;53.218;6.564;2023-03-13T04:58:45;47268.44;;;-142.92;100.00
56456;BME280;42354;53.218;6.564;2023-03-13T05:01:11;47270.47;;;-142.92;100.00
56456;BME280;42354;53.218;6.564;2023-03-13T05:03:36;47268.44;;;-142.92;100.00
56456;BME280;42354;53.218;6.564;2023-03-13T05:06:02;47276.63;;;-142.92;100.00
56456;BME280;42354;53.218;6.564;2023-03-13T05:08:27;47278.69;;;-142.92;100.00
56456;BME280;42354;53.218;6.564;2023-03-13T05:10:52;47274.59;;;-142.92;100.00
56456;BME280;42354;53.218;6.564;2023-03-13T05:13:18;47276.63;;;-142.92;100.00
56456;BME280;42354;53.218;6.564;2023-03-13T05:15:43;47278.69;;;-142.92;100.00
56456;BME280;42354;53.218;6.564;2023-03-13T05:18:08;47284.84;;;-142.92;100.00
56456;BME280;42354;53.218;6.564;2023-03-13T05:20:34;47284.84;;;-142.92;100.00
56456;BME280;42354;53.218;6.564;2023-03-13T05:22:59;47278.69;;;-142.92;100.00
56456;BME280;42354;53.218;6.564;2023-03-13T05:25:25;47276.63;;;-142.92;100.00
56456;BME280;42354;53.218;6.564;2023-03-13T05:27:50;47278.69;;;-142.92;100.00
56456;BME280;42354;53.218;6.564;2023-03-13T05:30:15;47264.31;;;-142.92;100.00
56456;BME280;42354;53.218;6.564;2023-03-13T05:32:41;47256.13;;;-142.92;100.00
56456;BME280;42354;53.218;6.564;2023-03-13T05:35:06;47258.16;;;-142.92;100.00
56456;BME280;42354;53.218;6.564;2023-03-13T05:37:32;47245.84;;;-142.92;100.00
56456;BME280;42354;53.218;6.564;2023-03-13T05:39:57;47245.84;;;-142.92;100.00
56456;BME280;42354;53.218;6.564;2023-03-13T05:42:23;47237.66;;;-142.92;100.00
56456;BME280;42354;53.218;6.564;2023-03-13T05:44:49;47249.97;;;-142.92;100.00
56456;BME280;42354;53.218;6.564;2023-03-13T05:47:14;47239.69;;;-142.92;100.00
56456;BME280;42354;53.218;6.564;2023-03-13T05:49:41;47249.97;;;-142.92;100.00
56456;BME280;42354;53.218;6.564;2023-03-13T05:52:06;47243.81;;;-142.92;100.00
56456;BME280;42354;53.218;6.564;2023-03-13T05:54:32;47241.75;;;-142.92;100.00
56456;BME280;42354;53.218;6.564;2023-03-13T05:56:57;47243.81;;;-142.92;100.00
56456;BME280;42354;53.218;6.564;2023-03-13T05:59:23;47241.75;;;-142.92;100.00
56456;BME280;42354;53.218;6.564;2023-03-13T06:01:48;47247.91;;;-142.92;100.00
56456;BME280;42354;53.218;6.564;2023-03-13T06:04:14;47239.69;;;-142.92;100.00
56456;BME280;42354;53.218;6.564;2023-03-13T06:06:39;47243.81;;;-142.92;100.00
56456;BME280;42354;53.218;6.564;2023-03-13T06:09:06;47245.84;;;-142.92;100.00
56456;BME280;42354;53.218;6.564;2023-03-13T06:11:31;47243.81;;;-142.92;100.00
56456;BME280;42354;53.218;6.564;2023-03-13T06:13:56;47245.84;;;-142.92;100.00
56456;BME280;42354;53.218;6.564;2023-03-13T06:16:22;47247.91;;;-142.92;100.00
56456;BME280;42354;53.218;6.564;2023-03-13T06:18:47;47243.81;;;-142.92;100.00
56456;BME280;42354;53.218;6.564;2023-03-13T06:21:13;47243.81;;;-142.92;100.00
56456;BME280;42354;53.218;6.564;2023-03-13T06:23:38;47249.97;;;-142.92;100.00
56456;BME280;42354;53.218;6.564;2023-03-13T06:26:04;47249.97;;;-142.92;100.00
56456;BME280;42354;53.218;6.564;2023-03-13T06:28:29;47249.97;;;-142.92;100.00
56456;BME280;42354;53.218;6.564;2023-03-13T06:31:00;47243.81;;;-142.92;100.00
56456;BME280;42354;53.218;6.564;2023-03-13T06:33:25;47241.75;;;-142.92;100.00
56456;BME280;42354;53.218;6.564;2023-03-13T06:35:51;47243.81;;;-142.92;100.00
56456;BME280;42354;53.218;6.564;2023-03-13T06:38:16;47243.81;;;-142.92;100.00
56456;BME280;42354;53.218;6.564;2023-03-13T06:40:41;47245.84;;;-142.92;100.00
56456;BME280;42354;53.218;6.564;2023-03-13T06:43:06;47245.84;;;-142.92;100.00
56456;BME280;42354;53.218;6.564;2023-03-13T06:45:34;47241.75;;;-142.92;100.00
56456;BME280;42354;53.218;6.564;2023-03-13T06:48:00;47245.84;;;-142.92;100.00
56456;BME280;42354;53.218;6.564;2023-03-13T06:50:25;47245.84;;;-142.92;100.00
56456;BME280;42354;53.218;6.564;2023-03-13T06:52:51;47239.69;;;-142.92;100.00
56456;BME280;42354;53.218;6.564;2023-03-13T06:55:17;47241.75;;;-142.92;100.00
56456;BME280;42354;53.218;6.564;2023-03-13T06:57:42;47237.66;;;-142.92;100.00
56456;BME280;42354;53.218;6.564;2023-03-13T07:00:09;47241.75;;;-142.92;100.00
56456;BME280;42354;53.218;6.564;2023-03-13T07:02:35;47237.66;;;-142.92;100.00
56456;BME280;42354;53.218;6.564;2023-03-13T07:05:01;47241.75;;;-142.92;100.00
56456;BME280;42354;53.218;6.564;2023-03-13T07:07:30;47239.69;;;-142.92;100.00
56456;BME280;42354;53.218;6.564;2023-03-13T07:09:57;47221.22;;;-142.92;100.00
56456;BME280;42354;53.218;6.564;2023-03-13T07:12:22;47186.34;;;-142.92;100.00
56456;BME280;42354;53.218;6.564;2023-03-13T07:14:47;47186.34;;;-142.92;100.00
56456;BME280;42354;53.218;6.564;2023-03-13T07:17:13;47145.28;;;-142.92;100.00
56456;BME280;42354;53.218;6.564;2023-03-13T07:19:38;47114.50;;;-142.92;100.00
56456;BME280;42354;53.218;6.564;2023-03-13T07:22:03;47065.25;;;-142.92;100.00
56456;BME280;42354;53.218;6.564;2023-03-13T07:24:29;46997.53;;;-142.92;100.00
56456;BME280;42354;53.218;6.564;2023-03-13T07:26:55;47007.81;;;-142.92;100.00
56456;BME280;42354;53.218;6.564;2023-03-13T07:29:21;47020.13;;;-142.92;100.00
56456;BME280;42354;53.218;6.564;2023-03-13T07:31:46;46931.88;;;-142.92;100.00
56456;BME280;42354;53.218;6.564;2023-03-13T07:34:12;46927.78;;;-142.92;100.00
56456;BME280;42354;53.218;6.564;2023-03-13T07:36:37;47003.69;;;-142.92;100.00
56456;BME280;42354;53.218;6.564;2023-03-13T07:39:04;47038.59;;;-142.92;100.00
56456;BME280;42354;53.218;6.564;2023-03-13T07:41:29;47102.19;;;-142.92;100.00
56456;BME280;42354;53.218;6.564;2023-03-13T07:43:55;47118.63;;;-142.92;100.00
56456;BME280;42354;53.218;6.564;2023-03-13T07:46:20;47130.94;;;-142.92;100.00
56456;BME280;42354;53.218;6.564;2023-03-13T07:48:46;47169.91;;;-142.92;100.00
56456;BME280;42354;53.218;6.564;2023-03-13T07:51:15;47188.38;;;-142.92;100.00
56456;BME280;42354;53.218;6.564;2023-03-13T07:53:42;47213.03;;;-142.92;100.00
56456;BME280;42354;53.218;6.564;2023-03-13T07:56:12;47225.34;;;-142.92;100.00
56456;BME280;42354;53.218;6.564;2023-03-13T07:58:39;47204.81;;;-142.92;100.00
56456;BME280;42354;53.218;6.564;2023-03-13T08:01:20;47204.81;;;-142.92;100.00
56456;BME280;42354;53.218;6.564;2023-03-13T08:03:46;47204.81;;;-142.92;100.00
56456;BME280;42354;53.218;6.564;2023-03-13T08:06:17;47204.81;;;-142.92;100.00
56456;BME280;42354;53.218;6.564;2023-03-13T08:08:45;47194.56;;;-142.92;100.00
56456;BME280;42354;53.218;6.564;2023-03-13T08:11:13;47204.81;;;-142.92;100.00
56456;BME280;42354;53.218;6.564;2023-03-13T08:13:39;47213.03;;;-142.92;100.00
56456;BME280;42354;53.218;6.564;2023-03-13T08:16:08;47194.56;;;-142.92;100.00
56456;BME280;42354;53.218;6.564;2023-03-13T08:18:35;47202.75;;;-142.92;100.00
56456;BME280;42354;53.218;6.564;2023-03-13T08:21:03;47167.88;;;-142.92;100.00
56456;BME280;42354;53.218;6.564;2023-03-13T08:23:30;47149.41;;;-142.92;100.00
56456;BME280;42354;53.218;6.564;2023-03-13T08:26:08;47032.44;;;-142.92;100.00
56456;BME280;42354;53.218;6.564;2023-03-13T08:28:34;46974.97;;;-142.92;100.00
56456;BME280;42354;53.218;6.564;2023-03-13T08:31:13;46829.28;;;-142.92;100.00
56456;BME280;42354;53.218;6.564;2023-03-13T08:33:40;46977.03;;;-142.92;100.00
56456;BME280;42354;53.218;6.564;2023-03-13T08:38:42;46999.59;;;-142.92;100.00
56456;BME280;42354;53.218;6.564;2023-03-13T08:41:09;47020.13;;;-142.92;99.69
56456;BME280;42354;53.218;6.564;2023-03-13T08:43:34;47003.69;;;-142.92;98.30
56456;BME280;42354;53.218;6.564;2023-03-13T08:46:00;47003.69;;;-142.92;96.03
56456;BME280;42354;53.218;6.564;2023-03-13T08:48:26;46999.59;;;-142.92;93.41
56456;BME280;42354;53.218;6.564;2023-03-13T08:51:09;46995.50;;;-142.92;91.39
56456;BME280;42354;53.218;6.564;2023-03-13T08:53:36;46997.53;;;-142.92;90.06
56456;BME280;42354;53.218;6.564;2023-03-13T08:56:03;47011.91;;;-142.92;89.75
56456;BME280;42354;53.218;6.564;2023-03-13T08:58:31;47007.81;;;-142.92;90.12
56456;BME280;42354;53.218;6.564;2023-03-13T09:01:04;47003.69;;;-142.92;88.98
56456;BME280;42354;53.218;6.564;2023-03-13T09:03:31;46999.59;;;-142.92;87.34
56456;BME280;42354;53.218;6.564;2023-03-13T09:06:00;47022.16;;;-142.92;87.45
56456;BME280;42354;53.218;6.564;2023-03-13T09:08:27;47005.75;;;-142.92;87.24
56456;BME280;42354;53.218;6.564;2023-03-13T09:11:00;47001.66;;;-142.92;86.07
56456;BME280;42354;53.218;6.564;2023-03-13T09:13:27;46999.59;;;-142.92;85.83
56456;BME280;42354;53.218;6.564;2023-03-13T09:18:23;46993.44;;;-142.92;85.95
56456;BME280;42354;53.218;6.564;2023-03-13T09:20:49;47020.13;;;-142.92;86.52
56456;BME280;42354;53.218;6.564;2023-03-13T09:23:15;47003.69;;;-142.92;86.36
56456;BME280;42354;53.218;6.564;2023-03-13T09:25:41;46985.22;;;-142.92;86.29
56456;BME280;42354;53.218;6.564;2023-03-13T09:28:06;46995.50;;;-142.92;86.62
56456;BME280;42354;53.218;6.564;2023-03-13T09:30:32;47003.69;;;-142.92;86.38
56456;BME280;42354;53.218;6.564;2023-03-13T09:32:57;47003.69;;;-142.92;86.78
56456;BME280;42354;53.218;6.564;2023-03-13T09:35:22;47007.81;;;-142.92;86.07
56456;BME280;42354;53.218;6.564;2023-03-13T09:37:49;47011.91;;;-142.92;88.06
56456;BME280;42354;53.218;6.564;2023-03-13T09:40:17;47005.75;;;-142.92;88.12
56456;BME280;42354;53.218;6.564;2023-03-13T09:42:56;46995.50;;;-142.92;87.72
56456;BME280;42354;53.218;6.564;2023-03-13T09:45:33;47011.91;;;-142.92;86.99
56456;BME280;42354;53.218;6.564;2023-03-13T09:51:12;46997.53;;;-142.92;84.81
56456;BME280;42354;53.218;6.564;2023-03-13T09:56:49;46997.53;;;-142.92;83.08
56456;BME280;42354;53.218;6.564;2023-03-13T09:59:21;47009.84;;;-142.92;83.19
56456;BME280;42354;53.218;6.564;2023-03-13T10:01:49;47020.13;;;-142.92;82.59
56456;BME280;42354;53.218;6.564;2023-03-13T10:06:44;46989.34;;;-142.92;81.00
56456;BME280;42354;53.218;6.564;2023-03-13T10:09:17;47001.66;;;-142.92;78.97
56456;BME280;42354;53.218;6.564;2023-03-13T10:12:22;47028.31;;;-142.92;77.64
56456;BME280;42354;53.218;6.564;2023-03-13T10:17:36;47009.84;;;-142.92;73.86
56456;BME280;42354;53.218;6.564;2023-03-13T10:20:26;47001.66;;;-142.92;72.25
56456;BME280;42354;53.218;6.564;2023-03-13T10:25:37;47016.00;;;-142.92;69.74
56456;BME280;42354;53.218;6.564;2023-03-13T10:28:03;47003.69;;;-142.92;69.00
56456;BME280;42354;53.218;6.564;2023-03-13T10:30:33;47009.84;;;-142.92;68.48
56456;BME280;42354;53.218;6.564;2023-03-13T10:33:19;47001.66;;;-142.92;67.03
56456;BME280;42354;53.218;6.564;2023-03-13T10:35:59;47016.00;;;-142.92;68.00
56456;BME280;42354;53.218;6.564;2023-03-13T10:38:25;47016.00;;;-142.92;67.85
56456;BME280;42354;53.218;6.564;2023-03-13T10:40:59;47016.00;;;-142.92;65.99
56456;BME280;42354;53.218;6.564;2023-03-13T10:43:26;46993.44;;;-142.92;64.44
56456;BME280;42354;53.218;6.564;2023-03-13T10:45:52;47011.91;;;-142.92;63.03
56456;BME280;42354;53.218;6.564;2023-03-13T10:50:50;46995.50;;;-142.92;61.01
56456;BME280;42354;53.218;6.564;2023-03-13T10:55:54;47018.06;;;-142.92;61.67
56456;BME280;42354;53.218;6.564;2023-03-13T10:58:29;47013.97;;;-142.92;61.28
56456;BME280;42354;53.218;6.564;2023-03-13T11:01:20;46995.50;;;-142.92;62.62
56456;BME280;42354;53.218;6.564;2023-03-13T11:03:47;46999.59;;;-142.92;62.76
56456;BME280;42354;53.218;6.564;2023-03-13T11:06:31;46999.59;;;-142.92;63.90
56456;BME280;42354;53.218;6.564;2023-03-13T11:11:52;47005.75;;;-142.92;63.97
56456;BME280;42354;53.218;6.564;2023-03-13T11:14:20;46993.44;;;-142.92;64.50
56456;BME280;42354;53.218;6.564;2023-03-13T11:16:52;47005.75;;;-142.92;64.09
56456;BME280;42354;53.218;6.564;2023-03-13T11:27:45;47003.69;;;-142.92;64.10
56456;BME280;42354;53.218;6.564;2023-03-13T11:31:02;47003.69;;;-142.92;64.50
56456;BME280;42354;53.218;6.564;2023-03-13T11:57:37;47007.81;;;-142.92;64.44
56456;BME280;42354;53.218;6.564;2023-03-13T12:05:50;46993.44;;;-142.92;59.29
56456;BME280;42354;53.218;6.564;2023-03-13T12:08:25;47009.84;;;-142.92;59.34
56456;BME280;42354;53.218;6.564;2023-03-13T12:11:03;46999.59;;;-142.92;59.31
56456;BME280;42354;53.218;6.564;2023-03-13T12:13:34;47001.66;;;-142.92;59.02
56456;BME280;42354;53.218;6.564;2023-03-13T12:16:10;46979.06;;;-142.92;58.76
56456;BME280;42354;53.218;6.564;2023-03-13T12:18:41;47011.91;;;-142.92;58.17
56456;BME280;42354;53.218;6.564;2023-03-13T12:21:21;46995.50;;;-142.92;57.93
56456;BME280;42354;53.218;6.564;2023-03-13T12:24:03;46993.44;;;-142.92;57.97
56456;BME280;42354;53.218;6.564;2023-03-13T12:29:17;46993.44;;;-142.92;56.96
56456;BME280;42354;53.218;6.564;2023-03-13T12:32:28;47005.75;;;-142.92;56.68
56456;BME280;42354;53.218;6.564;2023-03-13T12:37:59;47011.91;;;-142.92;55.84
56456;BME280;42354;53.218;6.564;2023-03-13T12:41:11;47003.69;;;-142.92;55.37
56456;BME280;42354;53.218;6.564;2023-03-13T12:43:42;47013.97;;;-142.92;55.37
56456;BME280;42354;53.218;6.564;2023-03-13T12:46:32;46995.50;;;-142.92;54.64
56456;BME280;42354;53.218;6.564;2023-03-13T12:49:42;46995.50;;;-142.92;53.68
56456;BME280;42354;53.218;6.564;2023-03-13T12:52:26;46999.59;;;-142.92;53.03
56456;BME280;42354;53.218;6.564;2023-03-13T13:00:34;47003.69;;;-142.92;52.55
56456;BME280;42354;53.218;6.564;2023-03-13T13:03:44;46989.34;;;-142.92;52.69
56456;BME280;42354;53.218;6.564;2023-03-13T13:06:12;46997.53;;;-142.92;51.54
56456;BME280;42354;53.218;6.564;2023-03-13T13:08:43;46987.28;;;-142.92;51.72
56456;BME280;42354;53.218;6.564;2023-03-13T13:14:35;46987.28;;;-142.92;49.78
56456;BME280;42354;53.218;6.564;2023-03-13T13:16:53;46987.28;;;-142.92;49.46
56456;BME280;42354;53.218;6.564;2023-03-13T13:24:52;46989.34;;;-142.92;49.41
56456;BME280;42354;53.218;6.564;2023-03-13T13:29:54;46991.38;;;-142.92;49.68
56456;BME280;42354;53.218;6.564;2023-03-13T13:32:30;46987.28;;;-142.92;49.10
56456;BME280;42354;53.218;6.564;2023-03-13T13:37:45;47003.69;;;-142.92;49.26
56456;BME280;42354;53.218;6.564;2023-03-13T13:43:01;46993.44;;;-142.92;50.00
56456;BME280;42354;53.218;6.564;2023-03-13T13:45:34;46987.28;;;-142.92;50.04
56456;BME280;42354;53.218;6.564;2023-03-13T13:48:33;46991.38;;;-142.92;49.06
56456;BME280;42354;53.218;6.564;2023-03-13T13:53:46;47003.69;;;-142.92;49.93
56456;BME280;42354;53.218;6.564;2023-03-13T13:56:31;47003.69;;;-142.92;50.07
56456;BME280;42354;53.218;6.564;2023-03-13T14:01:46;46987.28;;;-142.92;50.00
56456;BME280;42354;53.218;6.564;2023-03-13T14:04:14;46987.28;;;-142.92;49.71
56456;BME280;42354;53.218;6.564;2023-03-13T14:06:44;47003.69;;;-142.92;49.40
56456;BME280;42354;53.218;6.564;2023-03-13T14:11:52;46993.44;;;-142.92;48.58
56456;BME280;42354;53.218;6.564;2023-03-13T14:14:19;46979.06;;;-142.92;49.21
56456;BME280;42354;53.218;6.564;2023-03-13T14:16:50;47009.84;;;-142.92;49.16
56456;BME280;42354;53.218;6.564;2023-03-13T14:19:36;47003.69;;;-142.92;49.81
56456;BME280;42354;53.218;6.564;2023-03-13T14:22:06;46995.50;;;-142.92;48.93
56456;BME280;42354;53.218;6.564;2023-03-13T14:24:32;46974.97;;;-142.92;49.29
56456;BME280;42354;53.218;6.564;2023-03-13T14:26:57;46989.34;;;-142.92;48.84
56456;BME280;42354;53.218;6.564;2023-03-13T14:29:23;46983.19;;;-142.92;48.84
56456;BME280;42354;53.218;6.564;2023-03-13T14:31:56;47003.69;;;-142.92;47.87